sensor_id;sensor_type;location;lat;lon;timestamp;P1;durP1;ratioP1;P2;durP2;ratioP2
8574;SDS011;4325;42.520;27.448;2024-03-08T00:01:04;22.03;;;13.70;;
8574;SDS011;4325;42.520;27.448;2024-03-08T00:03:32;25.40;;;13.20;;
8574;SDS011;4325;42.520;27.448;2024-03-08T00:05:59;34.63;;;13.87;;
8574;SDS011;4325;42.520;27.448;2024-03-08T00:08:28;23.10;;;12.03;;
8574;SDS011;4325;42.520;27.448;2024-03-08T00:10:56;19.70;;;12.30;;
8574;SDS011;4325;42.520;27.448;2024-03-08T00:13:23;22.17;;;12.67;;
8574;SDS011;4325;42.520;27.448;2024-03-08T00:15:50;26.17;;;12.77;;
8574;SDS011;4325;42.520;27.448;2024-03-08T00:18:17;23.27;;;12.80;;
8574;SDS011;4325;42.520;27.448;2024-03-08T00:20:44;20.53;;;12.40;;
8574;SDS011;4325;42.520;27.448;2024-03-08T00:23:11;22.80;;;13.60;;
8574;SDS011;4325;42.520;27.448;2024-03-08T00:25:42;26.37;;;13.37;;
8574;SDS011;4325;42.520;27.448;2024-03-08T00:28:09;27.03;;;13.90;;
8574;SDS011;4325;42.520;27.448;2024-03-08T00:30:38;24.23;;;14.00;;
8574;SDS011;4325;42.520;27.448;2024-03-08T00:33:05;23.37;;;13.00;;
8574;SDS011;4325;42.520;27.448;2024-03-08T00:35:33;23.57;;;13.27;;
8574;SDS011;4325;42.520;27.448;2024-03-08T00:38:00;21.60;;;12.40;;
8574;SDS011;4325;42.520;27.448;2024-03-08T00:40:27;21.53;;;12.03;;
8574;SDS011;4325;42.520;27.448;2024-03-08T00:42:56;22.40;;;12.40;;
8574;SDS011;4325;42.520;27.448;2024-03-08T00:45:23;23.97;;;12.93;;
8574;SDS011;4325;42.520;27.448;2024-03-08T00:47:50;20.27;;;12.63;;
8574;SDS011;4325;42.520;27.448;2024-03-08T00:50:17;27.47;;;13.93;;
8574;SDS011;4325;42.520;27.448;2024-03-08T00:52:44;21.83;;;12.50;;
8574;SDS011;4325;42.520;27.448;2024-03-08T00:55:11;23.33;;;12.80;;
8574;SDS011;4325;42.520;27.448;2024-03-08T00:57:38;23.93;;;14.20;;
8574;SDS011;4325;42.520;27.448;2024-03-08T01:00:07;31.30;;;13.57;;
8574;SDS011;4325;42.520;27.448;2024-03-08T01:02:37;26.70;;;13.83;;
8574;SDS011;4325;42.520;27.448;2024-03-08T01:05:04;23.23;;;12.63;;
8574;SDS011;4325;42.520;27.448;2024-03-08T01:07:32;26.93;;;13.67;;
8574;SDS011;4325;42.520;27.448;2024-03-08T01:09:59;21.00;;;12.87;;
8574;SDS011;4325;42.520;27.448;2024-03-08T01:12:27;24.57;;;12.90;;
8574;SDS011;4325;42.520;27.448;2024-03-08T01:14:54;25.83;;;13.43;;
8574;SDS011;4325;42.520;27.448;2024-03-08T01:17:24;21.30;;;12.13;;
8574;SDS011;4325;42.520;27.448;2024-03-08T01:19:52;23.60;;;12.53;;
8574;SDS011;4325;42.520;27.448;2024-03-08T01:22:19;20.40;;;12.63;;
8574;SDS011;4325;42.520;27.448;2024-03-08T01:24:45;23.50;;;12.80;;
8574;SDS011;4325;42.520;27.448;2024-03-08T01:27:12;29.30;;;12.80;;
8574;SDS011;4325;42.520;27.448;2024-03-08T01:29:39;25.30;;;13.37;;
8574;SDS011;4325;42.520;27.448;2024-03-08T01:32:07;27.60;;;13.77;;
8574;SDS011;4325;42.520;27.448;2024-03-08T01:34:35;24.57;;;12.73;;
8574;SDS011;4325;42.520;27.448;2024-03-08T01:37:02;23.17;;;13.27;;
8574;SDS011;4325;42.520;27.448;2024-03-08T01:39:30;26.43;;;13.43;;
8574;SDS011;4325;42.520;27.448;2024-03-08T01:41:57;23.83;;;12.80;;
8574;SDS011;4325;42.520;27.448;2024-03-08T01:44:24;28.80;;;12.63;;
8574;SDS011;4325;42.520;27.448;2024-03-08T01:46:51;24.40;;;12.63;;
8574;SDS011;4325;42.520;27.448;2024-03-08T01:49:20;19.97;;;12.57;;
8574;SDS011;4325;42.520;27.448;2024-03-08T01:51:50;22.50;;;13.47;;
8574;SDS011;4325;42.520;27.448;2024-03-08T01:54:18;29.17;;;12.53;;
8574;SDS011;4325;42.520;27.448;2024-03-08T01:56:46;30.70;;;14.27;;
8574;SDS011;4325;42.520;27.448;2024-03-08T01:59:14;24.47;;;13.73;;
8574;SDS011;4325;42.520;27.448;2024-03-08T02:01:42;22.57;;;12.30;;
8574;SDS011;4325;42.520;27.448;2024-03-08T02:04:09;24.10;;;13.97;;
8574;SDS011;4325;42.520;27.448;2024-03-08T02:06:36;18.40;;;12.30;;
8574;SDS011;4325;42.520;27.448;2024-03-08T02:09:06;23.50;;;12.37;;
8574;SDS011;4325;42.520;27.448;2024-03-08T02:11:33;18.73;;;11.33;;
8574;SDS011;4325;42.520;27.448;2024-03-08T02:14:01;22.83;;;13.30;;
8574;SDS011;4325;42.520;27.448;2024-03-08T02:16:28;22.53;;;12.60;;
8574;SDS011;4325;42.520;27.448;2024-03-08T02:18:55;21.23;;;12.20;;
8574;SDS011;4325;42.520;27.448;2024-03-08T02:21:24;17.70;;;11.17;;
8574;SDS011;4325;42.520;27.448;2024-03-08T02:23:51;19.10;;;12.17;;
8574;SDS011;4325;42.520;27.448;2024-03-08T02:26:19;30.70;;;13.07;;
8574;SDS011;4325;42.520;27.448;2024-03-08T02:28:46;18.57;;;11.73;;
8574;SDS011;4325;42.520;27.448;2024-03-08T02:31:14;21.63;;;12.27;;
8574;SDS011;4325;42.520;27.448;2024-03-08T02:33:41;21.10;;;11.60;;
8574;SDS011;4325;42.520;27.448;2024-03-08T02:36:08;18.33;;;10.77;;
8574;SDS011;4325;42.520;27.448;2024-03-08T02:38:37;19.80;;;11.13;;
8574;SDS011;4325;42.520;27.448;2024-03-08T02:41:06;18.70;;;10.67;;
8574;SDS011;4325;42.520;27.448;2024-03-08T02:43:33;15.77;;;10.73;;
8574;SDS011;4325;42.520;27.448;2024-03-08T02:46:01;17.60;;;10.27;;
8574;SDS011;4325;42.520;27.448;2024-03-08T02:48:28;21.53;;;10.83;;
8574;SDS011;4325;42.520;27.448;2024-03-08T02:50:55;14.70;;;9.97;;
8574;SDS011;4325;42.520;27.448;2024-03-08T02:53:23;14.73;;;9.23;;
8574;SDS011;4325;42.520;27.448;2024-03-08T02:55:52;12.93;;;8.70;;
8574;SDS011;4325;42.520;27.448;2024-03-08T02:58:20;11.63;;;8.10;;
8574;SDS011;4325;42.520;27.448;2024-03-08T03:00:47;10.53;;;7.57;;
8574;SDS011;4325;42.520;27.448;2024-03-08T03:03:15;10.10;;;6.67;;
8574;SDS011;4325;42.520;27.448;2024-03-08T03:05:42;10.83;;;6.63;;
8574;SDS011;4325;42.520;27.448;2024-03-08T03:08:09;11.90;;;7.30;;
8574;SDS011;4325;42.520;27.448;2024-03-08T03:10:37;11.47;;;7.27;;
8574;SDS011;4325;42.520;27.448;2024-03-08T03:13:05;9.97;;;6.10;;
8574;SDS011;4325;42.520;27.448;2024-03-08T03:15:33;10.53;;;7.17;;
8574;SDS011;4325;42.520;27.448;2024-03-08T03:18:01;8.27;;;5.93;;
8574;SDS011;4325;42.520;27.448;2024-03-08T03:20:28;9.70;;;5.97;;
8574;SDS011;4325;42.520;27.448;2024-03-08T03:22:57;9.73;;;5.40;;
8574;SDS011;4325;42.520;27.448;2024-03-08T03:25:26;8.77;;;5.67;;
8574;SDS011;4325;42.520;27.448;2024-03-08T03:27:59;9.10;;;6.20;;
8574;SDS011;4325;42.520;27.448;2024-03-08T03:30:27;7.93;;;5.27;;
8574;SDS011;4325;42.520;27.448;2024-03-08T03:32:58;7.17;;;5.40;;
8574;SDS011;4325;42.520;27.448;2024-03-08T03:35:26;9.20;;;5.37;;
8574;SDS011;4325;42.520;27.448;2024-03-08T03:37:54;8.43;;;5.73;;
8574;SDS011;4325;42.520;27.448;2024-03-08T03:40:32;9.70;;;5.17;;
8574;SDS011;4325;42.520;27.448;2024-03-08T03:42:59;6.83;;;5.30;;
8574;SDS011;4325;42.520;27.448;2024-03-08T03:45:28;8.57;;;5.27;;
8574;SDS011;4325;42.520;27.448;2024-03-08T03:47:58;5.97;;;5.00;;
8574;SDS011;4325;42.520;27.448;2024-03-08T03:50:25;8.03;;;5.50;;
8574;SDS011;4325;42.520;27.448;2024-03-08T03:52:52;8.07;;;5.13;;
8574;SDS011;4325;42.520;27.448;2024-03-08T03:55:19;8.93;;;5.60;;
8574;SDS011;4325;42.520;27.448;2024-03-08T03:57:47;9.77;;;6.03;;
8574;SDS011;4325;42.520;27.448;2024-03-08T04:00:14;8.23;;;5.83;;
8574;SDS011;4325;42.520;27.448;2024-03-08T04:02:43;10.33;;;6.87;;
8574;SDS011;4325;42.520;27.448;2024-03-08T04:05:12;10.70;;;6.37;;
8574;SDS011;4325;42.520;27.448;2024-03-08T04:07:39;9.97;;;6.47;;
8574;SDS011;4325;42.520;27.448;2024-03-08T04:10:09;10.23;;;7.03;;
8574;SDS011;4325;42.520;27.448;2024-03-08T04:12:40;12.30;;;7.03;;
8574;SDS011;4325;42.520;27.448;2024-03-08T04:15:08;9.43;;;7.00;;
8574;SDS011;4325;42.520;27.448;2024-03-08T04:17:36;11.50;;;8.07;;
8574;SDS011;4325;42.520;27.448;2024-03-08T04:20:05;11.10;;;7.43;;
8574;SDS011;4325;42.520;27.448;2024-03-08T04:22:35;11.60;;;7.50;;
8574;SDS011;4325;42.520;27.448;2024-03-08T04:25:02;11.93;;;8.23;;
8574;SDS011;4325;42.520;27.448;2024-03-08T04:27:31;14.67;;;8.03;;
8574;SDS011;4325;42.520;27.448;2024-03-08T04:29:59;12.47;;;7.37;;
8574;SDS011;4325;42.520;27.448;2024-03-08T04:32:26;12.20;;;7.83;;
8574;SDS011;4325;42.520;27.448;2024-03-08T04:34:54;13.93;;;8.47;;
8574;SDS011;4325;42.520;27.448;2024-03-08T04:37:23;13.17;;;8.33;;
8574;SDS011;4325;42.520;27.448;2024-03-08T04:39:50;14.47;;;8.30;;
8574;SDS011;4325;42.520;27.448;2024-03-08T04:42:17;17.33;;;9.83;;
8574;SDS011;4325;42.520;27.448;2024-03-08T04:44:44;17.17;;;9.43;;
8574;SDS011;4325;42.520;27.448;2024-03-08T04:47:11;16.50;;;9.00;;
8574;SDS011;4325;42.520;27.448;2024-03-08T04:49:39;15.40;;;9.47;;
8574;SDS011;4325;42.520;27.448;2024-03-08T04:52:06;13.27;;;9.10;;
8574;SDS011;4325;42.520;27.448;2024-03-08T04:54:34;15.13;;;8.70;;
8574;SDS011;4325;42.520;27.448;2024-03-08T04:57:01;16.80;;;8.90;;
8574;SDS011;4325;42.520;27.448;2024-03-08T04:59:30;15.03;;;8.53;;
8574;SDS011;4325;42.520;27.448;2024-03-08T05:01:57;15.97;;;9.77;;
8574;SDS011;4325;42.520;27.448;2024-03-08T05:04:24;19.50;;;9.53;;
8574;SDS011;4325;42.520;27.448;2024-03-08T05:06:51;16.63;;;9.27;;
8574;SDS011;4325;42.520;27.448;2024-03-08T05:09:18;15.20;;;9.87;;
8574;SDS011;4325;42.520;27.448;2024-03-08T05:11:47;15.80;;;8.90;;
8574;SDS011;4325;42.520;27.448;2024-03-08T05:14:14;17.33;;;9.93;;
8574;SDS011;4325;42.520;27.448;2024-03-08T05:16:42;14.63;;;9.93;;
8574;SDS011;4325;42.520;27.448;2024-03-08T05:19:13;21.37;;;9.70;;
8574;SDS011;4325;42.520;27.448;2024-03-08T05:21:42;16.23;;;9.60;;
8574;SDS011;4325;42.520;27.448;2024-03-08T05:24:09;19.80;;;10.63;;
8574;SDS011;4325;42.520;27.448;2024-03-08T05:26:36;14.80;;;9.93;;
8574;SDS011;4325;42.520;27.448;2024-03-08T05:29:05;17.20;;;9.53;;
8574;SDS011;4325;42.520;27.448;2024-03-08T05:31:34;18.37;;;10.33;;
8574;SDS011;4325;42.520;27.448;2024-03-08T05:34:09;20.43;;;10.73;;
8574;SDS011;4325;42.520;27.448;2024-03-08T05:36:39;19.80;;;10.93;;
8574;SDS011;4325;42.520;27.448;2024-03-08T05:39:06;16.10;;;9.60;;
8574;SDS011;4325;42.520;27.448;2024-03-08T05:41:33;16.93;;;10.37;;
8574;SDS011;4325;42.520;27.448;2024-03-08T05:44:00;16.17;;;10.27;;
8574;SDS011;4325;42.520;27.448;2024-03-08T05:46:29;16.77;;;10.33;;
8574;SDS011;4325;42.520;27.448;2024-03-08T05:48:56;17.57;;;10.60;;
8574;SDS011;4325;42.520;27.448;2024-03-08T05:51:24;21.97;;;11.40;;
8574;SDS011;4325;42.520;27.448;2024-03-08T05:53:52;22.40;;;10.93;;
8574;SDS011;4325;42.520;27.448;2024-03-08T05:56:21;17.73;;;11.30;;
8574;SDS011;4325;42.520;27.448;2024-03-08T05:58:48;18.73;;;11.43;;
8574;SDS011;4325;42.520;27.448;2024-03-08T06:01:15;17.53;;;11.50;;
8574;SDS011;4325;42.520;27.448;2024-03-08T06:03:44;17.73;;;10.53;;
8574;SDS011;4325;42.520;27.448;2024-03-08T06:06:12;21.83;;;11.30;;
8574;SDS011;4325;42.520;27.448;2024-03-08T06:08:40;15.07;;;10.60;;
8574;SDS011;4325;42.520;27.448;2024-03-08T06:11:08;19.20;;;10.97;;
8574;SDS011;4325;42.520;27.448;2024-03-08T06:13:36;18.57;;;12.03;;
8574;SDS011;4325;42.520;27.448;2024-03-08T06:16:04;15.67;;;9.63;;
8574;SDS011;4325;42.520;27.448;2024-03-08T06:18:33;12.70;;;9.03;;
8574;SDS011;4325;42.520;27.448;2024-03-08T06:21:03;17.00;;;9.47;;
8574;SDS011;4325;42.520;27.448;2024-03-08T06:23:31;17.63;;;10.43;;
8574;SDS011;4325;42.520;27.448;2024-03-08T06:25:58;16.40;;;11.07;;
8574;SDS011;4325;42.520;27.448;2024-03-08T06:28:25;18.90;;;11.23;;
8574;SDS011;4325;42.520;27.448;2024-03-08T06:30:52;17.20;;;12.10;;
8574;SDS011;4325;42.520;27.448;2024-03-08T06:33:19;16.67;;;9.90;;
8574;SDS011;4325;42.520;27.448;2024-03-08T06:35:46;20.40;;;10.83;;
8574;SDS011;4325;42.520;27.448;2024-03-08T06:38:14;18.30;;;10.97;;
8574;SDS011;4325;42.520;27.448;2024-03-08T06:40:42;16.80;;;10.07;;
8574;SDS011;4325;42.520;27.448;2024-03-08T06:43:09;22.73;;;11.27;;
8574;SDS011;4325;42.520;27.448;2024-03-08T06:45:41;18.87;;;11.37;;
8574;SDS011;4325;42.520;27.448;2024-03-08T06:48:13;19.57;;;11.50;;
8574;SDS011;4325;42.520;27.448;2024-03-08T06:50:42;17.60;;;11.20;;
8574;SDS011;4325;42.520;27.448;2024-03-08T06:53:09;16.03;;;10.13;;
8574;SDS011;4325;42.520;27.448;2024-03-08T06:55:38;16.40;;;10.33;;
8574;SDS011;4325;42.520;27.448;2024-03-08T06:58:06;16.10;;;10.43;;
8574;SDS011;4325;42.520;27.448;2024-03-08T07:00:33;16.23;;;10.70;;
8574;SDS011;4325;42.520;27.448;2024-03-08T07:03:01;17.83;;;10.60;;
8574;SDS011;4325;42.520;27.448;2024-03-08T07:05:28;19.03;;;10.87;;
8574;SDS011;4325;42.520;27.448;2024-03-08T07:07:55;16.60;;;10.07;;
8574;SDS011;4325;42.520;27.448;2024-03-08T07:10:22;23.93;;;10.47;;
8574;SDS011;4325;42.520;27.448;2024-03-08T07:12:52;14.27;;;9.50;;
8574;SDS011;4325;42.520;27.448;2024-03-08T07:15:19;20.17;;;11.33;;
8574;SDS011;4325;42.520;27.448;2024-03-08T07:17:48;15.53;;;9.03;;
8574;SDS011;4325;42.520;27.448;2024-03-08T07:20:17;14.20;;;9.97;;
8574;SDS011;4325;42.520;27.448;2024-03-08T07:22:45;13.13;;;9.00;;
8574;SDS011;4325;42.520;27.448;2024-03-08T07:25:13;19.80;;;10.07;;
8574;SDS011;4325;42.520;27.448;2024-03-08T07:27:47;21.37;;;10.57;;
8574;SDS011;4325;42.520;27.448;2024-03-08T07:30:16;16.83;;;10.83;;
8574;SDS011;4325;42.520;27.448;2024-03-08T07:33:16;14.57;;;9.20;;
8574;SDS011;4325;42.520;27.448;2024-03-08T07:35:43;16.00;;;9.33;;
8574;SDS011;4325;42.520;27.448;2024-03-08T07:38:12;15.50;;;9.93;;
8574;SDS011;4325;42.520;27.448;2024-03-08T07:40:40;17.30;;;9.83;;
8574;SDS011;4325;42.520;27.448;2024-03-08T07:43:09;14.73;;;9.67;;
8574;SDS011;4325;42.520;27.448;2024-03-08T07:45:38;20.40;;;9.90;;
8574;SDS011;4325;42.520;27.448;2024-03-08T07:48:05;17.17;;;10.43;;
8574;SDS011;4325;42.520;27.448;2024-03-08T07:50:35;14.73;;;9.60;;
8574;SDS011;4325;42.520;27.448;2024-03-08T07:53:03;13.47;;;8.67;;
8574;SDS011;4325;42.520;27.448;2024-03-08T07:55:31;13.67;;;9.47;;
8574;SDS011;4325;42.520;27.448;2024-03-08T07:57:59;18.03;;;9.83;;
8574;SDS011;4325;42.520;27.448;2024-03-08T08:00:26;13.17;;;9.43;;
8574;SDS011;4325;42.520;27.448;2024-03-08T08:02:55;15.63;;;9.23;;
8574;SDS011;4325;42.520;27.448;2024-03-08T08:05:22;12.30;;;8.10;;
8574;SDS011;4325;42.520;27.448;2024-03-08T08:07:49;15.47;;;9.20;;
8574;SDS011;4325;42.520;27.448;2024-03-08T08:10:18;14.20;;;9.20;;
8574;SDS011;4325;42.520;27.448;2024-03-08T08:12:46;11.77;;;8.63;;
8574;SDS011;4325;42.520;27.448;2024-03-08T08:15:14;12.23;;;7.70;;
8574;SDS011;4325;42.520;27.448;2024-03-08T08:17:41;17.43;;;9.43;;
8574;SDS011;4325;42.520;27.448;2024-03-08T08:20:10;13.13;;;8.37;;
8574;SDS011;4325;42.520;27.448;2024-03-08T08:22:38;11.37;;;8.00;;
8574;SDS011;4325;42.520;27.448;2024-03-08T08:25:06;12.30;;;7.97;;
8574;SDS011;4325;42.520;27.448;2024-03-08T08:27:33;11.30;;;7.03;;
8574;SDS011;4325;42.520;27.448;2024-03-08T08:30:01;13.33;;;8.53;;
8574;SDS011;4325;42.520;27.448;2024-03-08T08:32:33;12.53;;;8.60;;
8574;SDS011;4325;42.520;27.448;2024-03-08T08:35:01;15.43;;;8.33;;
8574;SDS011;4325;42.520;27.448;2024-03-08T08:37:29;13.13;;;8.33;;
8574;SDS011;4325;42.520;27.448;2024-03-08T08:39:56;14.77;;;8.83;;
8574;SDS011;4325;42.520;27.448;2024-03-08T08:42:24;15.47;;;8.70;;
8574;SDS011;4325;42.520;27.448;2024-03-08T08:44:51;12.07;;;7.80;;
8574;SDS011;4325;42.520;27.448;2024-03-08T08:47:18;12.50;;;8.07;;
8574;SDS011;4325;42.520;27.448;2024-03-08T08:49:45;10.60;;;7.50;;
8574;SDS011;4325;42.520;27.448;2024-03-08T08:52:12;12.70;;;7.70;;
8574;SDS011;4325;42.520;27.448;2024-03-08T08:54:42;9.67;;;7.07;;
8574;SDS011;4325;42.520;27.448;2024-03-08T08:57:09;12.47;;;6.73;;
8574;SDS011;4325;42.520;27.448;2024-03-08T08:59:37;11.37;;;7.17;;
8574;SDS011;4325;42.520;27.448;2024-03-08T09:02:05;10.33;;;6.70;;
8574;SDS011;4325;42.520;27.448;2024-03-08T09:04:34;9.60;;;7.30;;
8574;SDS011;4325;42.520;27.448;2024-03-08T09:07:01;9.83;;;6.97;;
8574;SDS011;4325;42.520;27.448;2024-03-08T09:09:31;9.20;;;6.33;;
8574;SDS011;4325;42.520;27.448;2024-03-08T09:12:00;9.73;;;6.63;;
8574;SDS011;4325;42.520;27.448;2024-03-08T09:14:27;9.23;;;7.20;;
8574;SDS011;4325;42.520;27.448;2024-03-08T09:16:55;9.00;;;6.57;;
8574;SDS011;4325;42.520;27.448;2024-03-08T09:19:22;7.37;;;5.73;;
8574;SDS011;4325;42.520;27.448;2024-03-08T09:21:51;7.77;;;5.80;;
8574;SDS011;4325;42.520;27.448;2024-03-08T09:24:18;8.23;;;5.73;;
8574;SDS011;4325;42.520;27.448;2024-03-08T09:26:45;9.90;;;5.97;;
8574;SDS011;4325;42.520;27.448;2024-03-08T09:29:14;6.83;;;5.30;;
8574;SDS011;4325;42.520;27.448;2024-03-08T09:31:41;7.97;;;5.13;;
8574;SDS011;4325;42.520;27.448;2024-03-08T09:34:08;10.33;;;5.80;;
8574;SDS011;4325;42.520;27.448;2024-03-08T09:36:35;12.07;;;6.90;;
8574;SDS011;4325;42.520;27.448;2024-03-08T09:39:02;11.57;;;6.47;;
8574;SDS011;4325;42.520;27.448;2024-03-08T09:41:32;8.57;;;6.33;;
8574;SDS011;4325;42.520;27.448;2024-03-08T09:43:59;11.50;;;6.50;;
8574;SDS011;4325;42.520;27.448;2024-03-08T09:46:30;9.00;;;6.27;;
8574;SDS011;4325;42.520;27.448;2024-03-08T09:48:57;7.93;;;5.70;;
8574;SDS011;4325;42.520;27.448;2024-03-08T09:51:27;7.60;;;5.83;;
8574;SDS011;4325;42.520;27.448;2024-03-08T09:53:56;10.23;;;6.57;;
8574;SDS011;4325;42.520;27.448;2024-03-08T09:56:24;10.33;;;6.80;;
8574;SDS011;4325;42.520;27.448;2024-03-08T09:58:53;9.67;;;6.10;;
8574;SDS011;4325;42.520;27.448;2024-03-08T10:01:41;8.07;;;5.67;;
8574;SDS011;4325;42.520;27.448;2024-03-08T10:04:09;7.87;;;5.73;;
8574;SDS011;4325;42.520;27.448;2024-03-08T10:06:36;8.63;;;5.90;;
8574;SDS011;4325;42.520;27.448;2024-03-08T10:09:03;8.03;;;6.07;;
8574;SDS011;4325;42.520;27.448;2024-03-08T10:11:33;8.27;;;5.63;;
8574;SDS011;4325;42.520;27.448;2024-03-08T10:14:00;10.63;;;6.73;;
8574;SDS011;4325;42.520;27.448;2024-03-08T10:16:27;8.10;;;6.20;;
8574;SDS011;4325;42.520;27.448;2024-03-08T10:18:57;6.67;;;5.53;;
8574;SDS011;4325;42.520;27.448;2024-03-08T10:21:25;9.13;;;6.57;;
8574;SDS011;4325;42.520;27.448;2024-03-08T10:23:53;12.87;;;6.17;;
8574;SDS011;4325;42.520;27.448;2024-03-08T10:26:23;8.33;;;6.30;;
8574;SDS011;4325;42.520;27.448;2024-03-08T10:28:51;8.33;;;5.60;;
8574;SDS011;4325;42.520;27.448;2024-03-08T10:31:19;10.10;;;6.70;;
8574;SDS011;4325;42.520;27.448;2024-03-08T10:33:46;11.40;;;6.27;;
8574;SDS011;4325;42.520;27.448;2024-03-08T10:36:15;10.50;;;6.33;;
8574;SDS011;4325;42.520;27.448;2024-03-08T10:38:44;7.20;;;5.23;;
8574;SDS011;4325;42.520;27.448;2024-03-08T10:41:12;12.00;;;6.80;;
8574;SDS011;4325;42.520;27.448;2024-03-08T10:43:46;8.87;;;6.10;;
8574;SDS011;4325;42.520;27.448;2024-03-08T10:46:34;11.20;;;5.80;;
8574;SDS011;4325;42.520;27.448;2024-03-08T10:49:12;6.93;;;5.60;;
8574;SDS011;4325;42.520;27.448;2024-03-08T10:51:45;6.67;;;5.27;;
8574;SDS011;4325;42.520;27.448;2024-03-08T10:54:17;8.30;;;5.50;;
8574;SDS011;4325;42.520;27.448;2024-03-08T10:56:46;7.73;;;4.90;;
8574;SDS011;4325;42.520;27.448;2024-03-08T10:59:15;6.37;;;5.13;;
8574;SDS011;4325;42.520;27.448;2024-03-08T11:01:44;6.43;;;4.73;;
8574;SDS011;4325;42.520;27.448;2024-03-08T11:04:11;6.10;;;5.13;;
8574;SDS011;4325;42.520;27.448;2024-03-08T11:06:41;6.80;;;4.90;;
8574;SDS011;4325;42.520;27.448;2024-03-08T11:09:20;7.07;;;4.37;;
8574;SDS011;4325;42.520;27.448;2024-03-08T11:14:46;5.70;;;4.43;;
8574;SDS011;4325;42.520;27.448;2024-03-08T11:17:15;6.53;;;4.47;;
8574;SDS011;4325;42.520;27.448;2024-03-08T11:19:47;8.33;;;4.20;;
8574;SDS011;4325;42.520;27.448;2024-03-08T11:22:20;6.20;;;4.70;;
8574;SDS011;4325;42.520;27.448;2024-03-08T11:24:51;6.03;;;4.57;;
8574;SDS011;4325;42.520;27.448;2024-03-08T11:27:18;5.73;;;4.57;;
8574;SDS011;4325;42.520;27.448;2024-03-08T11:29:58;4.70;;;4.27;;
8574;SDS011;4325;42.520;27.448;2024-03-08T11:32:33;4.70;;;4.03;;
8574;SDS011;4325;42.520;27.448;2024-03-08T11:35:04;5.20;;;4.13;;
8574;SDS011;4325;42.520;27.448;2024-03-08T11:37:34;6.33;;;4.50;;
8574;SDS011;4325;42.520;27.448;2024-03-08T11:40:06;4.77;;;4.00;;
8574;SDS011;4325;42.520;27.448;2024-03-08T11:42:44;6.30;;;4.67;;
8574;SDS011;4325;42.520;27.448;2024-03-08T11:45:13;13.33;;;4.03;;
8574;SDS011;4325;42.520;27.448;2024-03-08T11:47:41;5.10;;;3.57;;
8574;SDS011;4325;42.520;27.448;2024-03-08T11:50:11;5.63;;;4.20;;
8574;SDS011;4325;42.520;27.448;2024-03-08T11:52:38;5.10;;;4.20;;
8574;SDS011;4325;42.520;27.448;2024-03-08T11:55:07;4.10;;;3.53;;
8574;SDS011;4325;42.520;27.448;2024-03-08T11:57:34;3.77;;;3.40;;
8574;SDS011;4325;42.520;27.448;2024-03-08T12:00:03;5.80;;;3.90;;
8574;SDS011;4325;42.520;27.448;2024-03-08T12:02:32;4.53;;;3.30;;
8574;SDS011;4325;42.520;27.448;2024-03-08T12:05:03;5.57;;;3.13;;
8574;SDS011;4325;42.520;27.448;2024-03-08T12:07:34;4.67;;;3.33;;
8574;SDS011;4325;42.520;27.448;2024-03-08T12:10:19;3.80;;;3.43;;
8574;SDS011;4325;42.520;27.448;2024-03-08T12:12:47;3.57;;;2.90;;
8574;SDS011;4325;42.520;27.448;2024-03-08T12:15:16;4.60;;;3.33;;
8574;SDS011;4325;42.520;27.448;2024-03-08T12:17:44;3.50;;;3.00;;
8574;SDS011;4325;42.520;27.448;2024-03-08T12:20:14;5.10;;;2.97;;
8574;SDS011;4325;42.520;27.448;2024-03-08T12:22:42;12.07;;;3.10;;
8574;SDS011;4325;42.520;27.448;2024-03-08T12:25:10;4.17;;;3.40;;
8574;SDS011;4325;42.520;27.448;2024-03-08T12:27:40;5.53;;;3.30;;
8574;SDS011;4325;42.520;27.448;2024-03-08T12:30:15;3.47;;;2.77;;
8574;SDS011;4325;42.520;27.448;2024-03-08T12:32:48;3.10;;;2.80;;
8574;SDS011;4325;42.520;27.448;2024-03-08T12:35:18;3.27;;;2.87;;
8574;SDS011;4325;42.520;27.448;2024-03-08T12:37:47;3.30;;;2.83;;
8574;SDS011;4325;42.520;27.448;2024-03-08T12:40:16;4.53;;;3.50;;
8574;SDS011;4325;42.520;27.448;2024-03-08T12:42:45;5.87;;;3.47;;
8574;SDS011;4325;42.520;27.448;2024-03-08T12:45:13;5.37;;;3.70;;
8574;SDS011;4325;42.520;27.448;2024-03-08T12:47:41;4.90;;;3.00;;
8574;SDS011;4325;42.520;27.448;2024-03-08T12:50:09;6.13;;;3.20;;
8574;SDS011;4325;42.520;27.448;2024-03-08T12:52:37;3.50;;;3.20;;
8574;SDS011;4325;42.520;27.448;2024-03-08T12:55:04;5.40;;;3.47;;
8574;SDS011;4325;42.520;27.448;2024-03-08T12:57:33;3.73;;;3.07;;
8574;SDS011;4325;42.520;27.448;2024-03-08T13:00:04;5.07;;;3.13;;
8574;SDS011;4325;42.520;27.448;2024-03-08T13:02:38;4.13;;;2.90;;
8574;SDS011;4325;42.520;27.448;2024-03-08T13:05:06;3.50;;;3.20;;
8574;SDS011;4325;42.520;27.448;2024-03-08T13:07:35;3.03;;;2.73;;
8574;SDS011;4325;42.520;27.448;2024-03-08T13:10:03;6.37;;;4.27;;
8574;SDS011;4325;42.520;27.448;2024-03-08T13:12:31;4.80;;;3.67;;
8574;SDS011;4325;42.520;27.448;2024-03-08T13:14:58;3.77;;;3.33;;
8574;SDS011;4325;42.520;27.448;2024-03-08T13:17:26;4.20;;;3.63;;
8574;SDS011;4325;42.520;27.448;2024-03-08T13:19:54;5.13;;;3.90;;
8574;SDS011;4325;42.520;27.448;2024-03-08T13:22:24;4.53;;;3.50;;
8574;SDS011;4325;42.520;27.448;2024-03-08T13:24:51;4.57;;;3.83;;
8574;SDS011;4325;42.520;27.448;2024-03-08T13:27:18;6.17;;;4.17;;
8574;SDS011;4325;42.520;27.448;2024-03-08T13:29:46;5.33;;;4.03;;
8574;SDS011;4325;42.520;27.448;2024-03-08T13:32:14;12.30;;;7.90;;
8574;SDS011;4325;42.520;27.448;2024-03-08T13:34:43;7.73;;;5.77;;
8574;SDS011;4325;42.520;27.448;2024-03-08T13:37:12;7.43;;;4.90;;
8574;SDS011;4325;42.520;27.448;2024-03-08T13:39:41;6.73;;;4.53;;
8574;SDS011;4325;42.520;27.448;2024-03-08T13:42:09;5.57;;;4.30;;
8574;SDS011;4325;42.520;27.448;2024-03-08T13:44:38;5.33;;;4.07;;
8574;SDS011;4325;42.520;27.448;2024-03-08T13:47:06;5.10;;;4.30;;
8574;SDS011;4325;42.520;27.448;2024-03-08T13:49:33;4.77;;;4.17;;
8574;SDS011;4325;42.520;27.448;2024-03-08T13:52:03;6.57;;;4.90;;
8574;SDS011;4325;42.520;27.448;2024-03-08T13:54:30;6.27;;;4.53;;
8574;SDS011;4325;42.520;27.448;2024-03-08T13:56:58;6.10;;;4.20;;
8574;SDS011;4325;42.520;27.448;2024-03-08T13:59:25;8.53;;;4.50;;
8574;SDS011;4325;42.520;27.448;2024-03-08T14:01:55;7.27;;;4.37;;
8574;SDS011;4325;42.520;27.448;2024-03-08T14:04:24;5.67;;;4.60;;
8574;SDS011;4325;42.520;27.448;2024-03-08T14:06:52;6.57;;;4.63;;
8574;SDS011;4325;42.520;27.448;2024-03-08T14:09:24;5.87;;;4.57;;
8574;SDS011;4325;42.520;27.448;2024-03-08T14:11:51;5.80;;;4.47;;
8574;SDS011;4325;42.520;27.448;2024-03-08T14:14:20;6.20;;;4.93;;
8574;SDS011;4325;42.520;27.448;2024-03-08T14:16:48;7.43;;;5.53;;
8574;SDS011;4325;42.520;27.448;2024-03-08T14:19:17;7.20;;;5.10;;
8574;SDS011;4325;42.520;27.448;2024-03-08T14:21:45;7.83;;;5.33;;
8574;SDS011;4325;42.520;27.448;2024-03-08T14:24:13;7.83;;;5.50;;
8574;SDS011;4325;42.520;27.448;2024-03-08T14:26:42;7.60;;;5.37;;
8574;SDS011;4325;42.520;27.448;2024-03-08T14:29:09;11.30;;;6.37;;
8574;SDS011;4325;42.520;27.448;2024-03-08T14:31:36;13.20;;;6.60;;
8574;SDS011;4325;42.520;27.448;2024-03-08T14:34:03;10.43;;;7.00;;
8574;SDS011;4325;42.520;27.448;2024-03-08T14:36:32;11.03;;;7.13;;
8574;SDS011;4325;42.520;27.448;2024-03-08T14:38:59;11.63;;;7.77;;
8574;SDS011;4325;42.520;27.448;2024-03-08T14:41:26;10.77;;;7.67;;
8574;SDS011;4325;42.520;27.448;2024-03-08T14:43:55;14.07;;;7.73;;
8574;SDS011;4325;42.520;27.448;2024-03-08T14:46:22;12.07;;;8.07;;
8574;SDS011;4325;42.520;27.448;2024-03-08T14:48:49;20.87;;;7.83;;
8574;SDS011;4325;42.520;27.448;2024-03-08T14:51:17;11.93;;;8.17;;
8574;SDS011;4325;42.520;27.448;2024-03-08T14:53:47;11.50;;;7.90;;
8574;SDS011;4325;42.520;27.448;2024-03-08T14:56:15;14.87;;;9.33;;
8574;SDS011;4325;42.520;27.448;2024-03-08T14:58:42;20.67;;;10.20;;